sensor_id;sensor_type;location;lat;lon;timestamp;temperature;humidity
4651;DHT22;2338;49.602;8.722;2022-10-13T00:02:31;11.60;99.90
4651;DHT22;2338;49.602;8.722;2022-10-13T00:05:19;11.70;99.90
4651;DHT22;2338;49.602;8.722;2022-10-13T00:08:04;11.70;99.90
4651;DHT22;2338;49.602;8.722;2022-10-13T00:10:50;11.60;99.90
4651;DHT22;2338;49.602;8.722;2022-10-13T00:13:36;11.50;99.90
4651;DHT22;2338;49.602;8.722;2022-10-13T00:16:22;11.50;99.90
4651;DHT22;2338;49.602;8.722;2022-10-13T00:19:08;11.60;99.90
4651;DHT22;2338;49.602;8.722;2022-10-13T00:21:55;11.70;99.90
4651;DHT22;2338;49.602;8.722;2022-10-13T00:24:41;11.70;99.90
4651;DHT22;2338;49.602;8.722;2022-10-13T00:27:27;11.70;99.90
4651;DHT22;2338;49.602;8.722;2022-10-13T00:30:12;11.70;99.90
4651;DHT22;2338;49.602;8.722;2022-10-13T00:32:58;11.70;99.90
4651;DHT22;2338;49.602;8.722;2022-10-13T00:35:46;11.60;99.90
4651;DHT22;2338;49.602;8.722;2022-10-13T00:38:33;11.70;99.90
4651;DHT22;2338;49.602;8.722;2022-10-13T00:41:19;11.70;99.90
4651;DHT22;2338;49.602;8.722;2022-10-13T00:44:54;11.60;99.90
4651;DHT22;2338;49.602;8.722;2022-10-13T00:47:12;11.70;99.90
4651;DHT22;2338;49.602;8.722;2022-10-13T00:49:57;11.70;99.90
4651;DHT22;2338;49.602;8.722;2022-10-13T00:52:44;11.60;99.90
4651;DHT22;2338;49.602;8.722;2022-10-13T00:55:35;11.60;99.90
4651;DHT22;2338;49.602;8.722;2022-10-13T00:58:23;11.70;99.90
4651;DHT22;2338;49.602;8.722;2022-10-13T01:01:09;11.70;99.90
4651;DHT22;2338;49.602;8.722;2022-10-13T01:03:55;11.50;99.90
4651;DHT22;2338;49.602;8.722;2022-10-13T01:06:41;11.50;99.90
4651;DHT22;2338;49.602;8.722;2022-10-13T01:09:26;11.40;99.90
4651;DHT22;2338;49.602;8.722;2022-10-13T01:12:29;11.50;99.90
4651;DHT22;2338;49.602;8.722;2022-10-13T01:15:24;11.60;99.90
4651;DHT22;2338;49.602;8.722;2022-10-13T01:18:18;11.60;99.90
4651;DHT22;2338;49.602;8.722;2022-10-13T01:21:13;11.70;99.90
4651;DHT22;2338;49.602;8.722;2022-10-13T01:24:27;11.60;99.90
4651;DHT22;2338;49.602;8.722;2022-10-13T01:27:37;11.70;99.90
4651;DHT22;2338;49.602;8.722;2022-10-13T01:30:32;11.80;99.90
4651;DHT22;2338;49.602;8.722;2022-10-13T01:33:28;11.70;99.90
4651;DHT22;2338;49.602;8.722;2022-10-13T01:36:19;11.80;99.90
4651;DHT22;2338;49.602;8.722;2022-10-13T01:39:13;11.70;99.90
4651;DHT22;2338;49.602;8.722;2022-10-13T01:42:07;11.70;99.90
4651;DHT22;2338;49.602;8.722;2022-10-13T01:44:59;11.70;99.90
4651;DHT22;2338;49.602;8.722;2022-10-13T01:47:48;11.90;99.90
4651;DHT22;2338;49.602;8.722;2022-10-13T01:50:36;12.00;99.90
4651;DHT22;2338;49.602;8.722;2022-10-13T01:53:22;12.00;99.90
4651;DHT22;2338;49.602;8.722;2022-10-13T01:56:08;12.00;99.90
4651;DHT22;2338;49.602;8.722;2022-10-13T01:58:55;12.00;99.90
4651;DHT22;2338;49.602;8.722;2022-10-13T02:01:50;12.00;99.90
4651;DHT22;2338;49.602;8.722;2022-10-13T02:04:49;12.00;99.90
4651;DHT22;2338;49.602;8.722;2022-10-13T02:07:43;11.90;99.90
4651;DHT22;2338;49.602;8.722;2022-10-13T02:10:33;12.00;99.90
4651;DHT22;2338;49.602;8.722;2022-10-13T02:13:22;12.00;99.90
4651;DHT22;2338;49.602;8.722;2022-10-13T02:16:09;12.00;99.90
4651;DHT22;2338;49.602;8.722;2022-10-13T02:18:56;12.20;99.90
4651;DHT22;2338;49.602;8.722;2022-10-13T02:21:44;12.20;99.90
4651;DHT22;2338;49.602;8.722;2022-10-13T02:24:31;12.20;99.90
4651;DHT22;2338;49.602;8.722;2022-10-13T02:27:17;12.30;99.90
4651;DHT22;2338;49.602;8.722;2022-10-13T02:30:04;12.30;99.90
4651;DHT22;2338;49.602;8.722;2022-10-13T02:32:49;12.20;99.90
4651;DHT22;2338;49.602;8.722;2022-10-13T02:35:35;12.20;99.90
4651;DHT22;2338;49.602;8.722;2022-10-13T02:38:22;12.10;99.90
4651;DHT22;2338;49.602;8.722;2022-10-13T02:41:08;12.20;99.90
4651;DHT22;2338;49.602;8.722;2022-10-13T02:43:54;12.20;99.90
4651;DHT22;2338;49.602;8.722;2022-10-13T02:46:40;12.20;99.90
4651;DHT22;2338;49.602;8.722;2022-10-13T02:49:25;12.00;99.90
4651;DHT22;2338;49.602;8.722;2022-10-13T02:52:11;11.80;99.90
4651;DHT22;2338;49.602;8.722;2022-10-13T02:54:58;11.70;99.90
4651;DHT22;2338;49.602;8.722;2022-10-13T02:57:44;11.70;99.90
4651;DHT22;2338;49.602;8.722;2022-10-13T03:00:29;11.70;99.90
4651;DHT22;2338;49.602;8.722;2022-10-13T03:03:15;11.70;99.90
4651;DHT22;2338;49.602;8.722;2022-10-13T03:06:00;11.70;99.90
4651;DHT22;2338;49.602;8.722;2022-10-13T03:08:46;11.70;99.90
4651;DHT22;2338;49.602;8.722;2022-10-13T03:11:33;11.70;99.90
4651;DHT22;2338;49.602;8.722;2022-10-13T03:14:19;11.50;99.90
4651;DHT22;2338;49.602;8.722;2022-10-13T03:17:05;11.40;99.90
4651;DHT22;2338;49.602;8.722;2022-10-13T03:19:51;11.40;99.90
4651;DHT22;2338;49.602;8.722;2022-10-13T03:22:36;11.50;99.90
4651;DHT22;2338;49.602;8.722;2022-10-13T03:25:22;11.60;99.90
4651;DHT22;2338;49.602;8.722;2022-10-13T03:28:09;11.60;99.90
4651;DHT22;2338;49.602;8.722;2022-10-13T03:31:00;11.50;99.90
4651;DHT22;2338;49.602;8.722;2022-10-13T03:33:45;11.40;99.90
4651;DHT22;2338;49.602;8.722;2022-10-13T03:36:31;11.50;99.90
4651;DHT22;2338;49.602;8.722;2022-10-13T03:39:17;11.40;99.90
4651;DHT22;2338;49.602;8.722;2022-10-13T03:42:03;11.30;99.90
4651;DHT22;2338;49.602;8.722;2022-10-13T03:44:49;11.30;99.90
4651;DHT22;2338;49.602;8.722;2022-10-13T03:47:35;11.30;99.90
4651;DHT22;2338;49.602;8.722;2022-10-13T03:50:21;11.30;99.90
4651;DHT22;2338;49.602;8.722;2022-10-13T03:53:08;11.20;99.90
4651;DHT22;2338;49.602;8.722;2022-10-13T03:55:55;11.20;99.90
4651;DHT22;2338;49.602;8.722;2022-10-13T03:58:41;11.20;99.90
4651;DHT22;2338;49.602;8.722;2022-10-13T04:01:29;11.20;99.90
4651;DHT22;2338;49.602;8.722;2022-10-13T04:04:14;11.10;99.90
4651;DHT22;2338;49.602;8.722;2022-10-13T04:07:00;11.20;99.90
4651;DHT22;2338;49.602;8.722;2022-10-13T04:09:46;11.20;99.90
4651;DHT22;2338;49.602;8.722;2022-10-13T04:12:32;11.30;99.90
4651;DHT22;2338;49.602;8.722;2022-10-13T04:15:17;11.40;99.90
4651;DHT22;2338;49.602;8.722;2022-10-13T04:18:06;11.30;99.90
4651;DHT22;2338;49.602;8.722;2022-10-13T04:20:52;11.30;99.90
4651;DHT22;2338;49.602;8.722;2022-10-13T04:23:38;11.40;99.90
4651;DHT22;2338;49.602;8.722;2022-10-13T04:26:26;11.40;99.90
4651;DHT22;2338;49.602;8.722;2022-10-13T04:29:12;11.50;99.90
4651;DHT22;2338;49.602;8.722;2022-10-13T04:31:58;11.50;99.90
4651;DHT22;2338;49.602;8.722;2022-10-13T04:34:45;11.60;99.90
4651;DHT22;2338;49.602;8.722;2022-10-13T04:37:31;11.60;99.90
4651;DHT22;2338;49.602;8.722;2022-10-13T04:40:16;11.60;99.90
4651;DHT22;2338;49.602;8.722;2022-10-13T04:43:02;11.70;99.90
4651;DHT22;2338;49.602;8.722;2022-10-13T04:45:48;11.70;99.90
4651;DHT22;2338;49.602;8.722;2022-10-13T04:48:33;11.70;99.90
4651;DHT22;2338;49.602;8.722;2022-10-13T04:51:22;11.70;99.90
4651;DHT22;2338;49.602;8.722;2022-10-13T04:54:08;11.70;99.90
4651;DHT22;2338;49.602;8.722;2022-10-13T04:56:54;11.70;99.90
4651;DHT22;2338;49.602;8.722;2022-10-13T04:59:40;11.70;99.90
4651;DHT22;2338;49.602;8.722;2022-10-13T05:02:25;11.70;99.90
4651;DHT22;2338;49.602;8.722;2022-10-13T05:05:11;11.70;99.90
4651;DHT22;2338;49.602;8.722;2022-10-13T05:07:58;11.80;99.90
4651;DHT22;2338;49.602;8.722;2022-10-13T05:10:52;11.80;99.90
4651;DHT22;2338;49.602;8.722;2022-10-13T05:13:38;11.90;99.90
4651;DHT22;2338;49.602;8.722;2022-10-13T05:16:24;11.90;99.90
4651;DHT22;2338;49.602;8.722;2022-10-13T05:19:10;11.90;99.90
4651;DHT22;2338;49.602;8.722;2022-10-13T05:21:56;11.90;99.90
4651;DHT22;2338;49.602;8.722;2022-10-13T05:24:43;11.90;99.90
4651;DHT22;2338;49.602;8.722;2022-10-13T05:27:28;11.90;99.90
4651;DHT22;2338;49.602;8.722;2022-10-13T05:30:14;11.90;99.90
4651;DHT22;2338;49.602;8.722;2022-10-13T05:33:00;11.80;99.90
4651;DHT22;2338;49.602;8.722;2022-10-13T05:35:45;11.70;99.90
4651;DHT22;2338;49.602;8.722;2022-10-13T05:38:31;11.80;99.90
4651;DHT22;2338;49.602;8.722;2022-10-13T05:41:18;11.80;99.90
4651;DHT22;2338;49.602;8.722;2022-10-13T05:44:06;11.90;99.90
4651;DHT22;2338;49.602;8.722;2022-10-13T05:46:52;11.60;99.90
4651;DHT22;2338;49.602;8.722;2022-10-13T05:49:38;11.60;99.90
4651;DHT22;2338;49.602;8.722;2022-10-13T05:52:24;11.60;99.90
4651;DHT22;2338;49.602;8.722;2022-10-13T05:55:12;11.40;99.90
4651;DHT22;2338;49.602;8.722;2022-10-13T05:58:00;11.40;99.90
4651;DHT22;2338;49.602;8.722;2022-10-13T06:00:46;11.40;99.90
4651;DHT22;2338;49.602;8.722;2022-10-13T06:03:33;11.50;99.90
4651;DHT22;2338;49.602;8.722;2022-10-13T06:06:20;11.50;99.90
4651;DHT22;2338;49.602;8.722;2022-10-13T06:09:06;11.50;99.90
4651;DHT22;2338;49.602;8.722;2022-10-13T06:11:52;11.60;99.90
4651;DHT22;2338;49.602;8.722;2022-10-13T06:14:38;11.50;99.90
4651;DHT22;2338;49.602;8.722;2022-10-13T06:17:24;11.60;99.90
4651;DHT22;2338;49.602;8.722;2022-10-13T06:20:10;11.60;99.90
4651;DHT22;2338;49.602;8.722;2022-10-13T06:22:55;11.60;99.90
4651;DHT22;2338;49.602;8.722;2022-10-13T06:25:46;11.50;99.90
4651;DHT22;2338;49.602;8.722;2022-10-13T06:28:32;11.50;99.90
4651;DHT22;2338;49.602;8.722;2022-10-13T06:31:19;11.50;99.90
4651;DHT22;2338;49.602;8.722;2022-10-13T06:34:04;11.50;99.90
4651;DHT22;2338;49.602;8.722;2022-10-13T06:36:50;11.50;99.90
4651;DHT22;2338;49.602;8.722;2022-10-13T06:39:36;11.50;99.90
4651;DHT22;2338;49.602;8.722;2022-10-13T06:42:22;11.50;99.90
4651;DHT22;2338;49.602;8.722;2022-10-13T06:45:08;11.50;99.90
4651;DHT22;2338;49.602;8.722;2022-10-13T06:47:56;11.60;99.90
4651;DHT22;2338;49.602;8.722;2022-10-13T06:50:41;11.60;99.90
4651;DHT22;2338;49.602;8.722;2022-10-13T06:53:27;11.60;99.90
4651;DHT22;2338;49.602;8.722;2022-10-13T06:56:13;11.60;99.90
4651;DHT22;2338;49.602;8.722;2022-10-13T06:58:58;11.60;99.90
4651;DHT22;2338;49.602;8.722;2022-10-13T07:01:43;11.60;99.90
4651;DHT22;2338;49.602;8.722;2022-10-13T07:04:31;11.50;99.90
4651;DHT22;2338;49.602;8.722;2022-10-13T07:07:16;11.50;99.90
4651;DHT22;2338;49.602;8.722;2022-10-13T07:10:02;11.60;99.90
4651;DHT22;2338;49.602;8.722;2022-10-13T07:12:48;11.80;99.90
4651;DHT22;2338;49.602;8.722;2022-10-13T07:15:36;11.90;99.90
4651;DHT22;2338;49.602;8.722;2022-10-13T07:18:22;11.90;99.90
4651;DHT22;2338;49.602;8.722;2022-10-13T07:21:09;12.00;99.90
4651;DHT22;2338;49.602;8.722;2022-10-13T07:23:55;12.00;99.90
4651;DHT22;2338;49.602;8.722;2022-10-13T07:26:41;12.00;99.90
4651;DHT22;2338;49.602;8.722;2022-10-13T07:29:26;12.10;99.90
4651;DHT22;2338;49.602;8.722;2022-10-13T07:32:12;12.10;99.90
4651;DHT22;2338;49.602;8.722;2022-10-13T07:34:58;12.20;99.90
4651;DHT22;2338;49.602;8.722;2022-10-13T07:37:45;12.20;99.90
4651;DHT22;2338;49.602;8.722;2022-10-13T07:40:30;12.10;99.90
4651;DHT22;2338;49.602;8.722;2022-10-13T07:43:16;12.20;99.90
4651;DHT22;2338;49.602;8.722;2022-10-13T07:46:03;12.30;99.90
4651;DHT22;2338;49.602;8.722;2022-10-13T07:48:50;12.40;99.90
4651;DHT22;2338;49.602;8.722;2022-10-13T07:51:36;12.50;99.90
4651;DHT22;2338;49.602;8.722;2022-10-13T07:54:23;12.50;99.90
4651;DHT22;2338;49.602;8.722;2022-10-13T07:57:09;12.50;99.90
4651;DHT22;2338;49.602;8.722;2022-10-13T07:59:55;12.60;99.90
4651;DHT22;2338;49.602;8.722;2022-10-13T08:02:41;12.60;99.90
4651;DHT22;2338;49.602;8.722;2022-10-13T08:05:26;12.60;99.90
4651;DHT22;2338;49.602;8.722;2022-10-13T08:08:12;12.70;99.90
4651;DHT22;2338;49.602;8.722;2022-10-13T08:11:01;12.70;99.90
4651;DHT22;2338;49.602;8.722;2022-10-13T08:13:47;12.80;99.90
4651;DHT22;2338;49.602;8.722;2022-10-13T08:16:33;12.90;99.90
4651;DHT22;2338;49.602;8.722;2022-10-13T08:19:19;13.00;99.90
4651;DHT22;2338;49.602;8.722;2022-10-13T08:22:05;13.10;99.90
4651;DHT22;2338;49.602;8.722;2022-10-13T08:24:50;13.20;99.90
4651;DHT22;2338;49.602;8.722;2022-10-13T08:27:37;13.30;99.90
4651;DHT22;2338;49.602;8.722;2022-10-13T08:30:23;13.40;99.90
4651;DHT22;2338;49.602;8.722;2022-10-13T08:33:09;13.60;99.90
4651;DHT22;2338;49.602;8.722;2022-10-13T08:35:55;13.60;99.90
4651;DHT22;2338;49.602;8.722;2022-10-13T08:38:41;13.50;99.90
4651;DHT22;2338;49.602;8.722;2022-10-13T08:41:30;13.50;99.90
4651;DHT22;2338;49.602;8.722;2022-10-13T08:44:22;13.60;99.90
4651;DHT22;2338;49.602;8.722;2022-10-13T08:47:16;13.70;99.90
4651;DHT22;2338;49.602;8.722;2022-10-13T08:50:09;13.70;99.90
4651;DHT22;2338;49.602;8.722;2022-10-13T08:52:58;13.80;99.90
4651;DHT22;2338;49.602;8.722;2022-10-13T08:55:47;13.80;99.90
4651;DHT22;2338;49.602;8.722;2022-10-13T08:58:35;13.90;99.90
4651;DHT22;2338;49.602;8.722;2022-10-13T09:01:24;13.90;99.90
4651;DHT22;2338;49.602;8.722;2022-10-13T09:04:23;14.00;99.90
4651;DHT22;2338;49.602;8.722;2022-10-13T09:07:12;14.00;99.90
4651;DHT22;2338;49.602;8.722;2022-10-13T09:09:59;14.00;99.90
4651;DHT22;2338;49.602;8.722;2022-10-13T09:12:45;14.10;99.90
4651;DHT22;2338;49.602;8.722;2022-10-13T09:15:42;14.10;99.90
4651;DHT22;2338;49.602;8.722;2022-10-13T09:18:30;14.10;99.90
4651;DHT22;2338;49.602;8.722;2022-10-13T09:21:20;14.10;99.90
4651;DHT22;2338;49.602;8.722;2022-10-13T09:24:10;14.10;99.90
4651;DHT22;2338;49.602;8.722;2022-10-13T09:27:09;14.10;99.90
4651;DHT22;2338;49.602;8.722;2022-10-13T09:29:56;14.10;99.90
4651;DHT22;2338;49.602;8.722;2022-10-13T09:32:50;14.10;99.90
4651;DHT22;2338;49.602;8.722;2022-10-13T09:35:36;14.10;99.90
4651;DHT22;2338;49.602;8.722;2022-10-13T09:38:23;14.10;99.90
4651;DHT22;2338;49.602;8.722;2022-10-13T09:41:16;14.10;99.90
4651;DHT22;2338;49.602;8.722;2022-10-13T09:44:10;14.10;99.90
4651;DHT22;2338;49.602;8.722;2022-10-13T09:46:59;14.10;99.90
4651;DHT22;2338;49.602;8.722;2022-10-13T09:49:58;14.10;99.90
4651;DHT22;2338;49.602;8.722;2022-10-13T09:52:46;14.20;99.90
4651;DHT22;2338;49.602;8.722;2022-10-13T09:55:34;14.20;99.90
4651;DHT22;2338;49.602;8.722;2022-10-13T09:58:25;14.20;99.90
4651;DHT22;2338;49.602;8.722;2022-10-13T10:01:19;14.30;99.90
4651;DHT22;2338;49.602;8.722;2022-10-13T10:04:08;14.30;99.90
4651;DHT22;2338;49.602;8.722;2022-10-13T10:06:56;14.30;99.90
4651;DHT22;2338;49.602;8.722;2022-10-13T10:09:45;14.40;99.90
4651;DHT22;2338;49.602;8.722;2022-10-13T10:12:34;14.40;99.90
4651;DHT22;2338;49.602;8.722;2022-10-13T10:15:25;14.40;99.90
4651;DHT22;2338;49.602;8.722;2022-10-13T10:18:16;14.30;99.90
4651;DHT22;2338;49.602;8.722;2022-10-13T10:21:11;14.30;99.90
4651;DHT22;2338;49.602;8.722;2022-10-13T10:24:07;14.20;99.90
4651;DHT22;2338;49.602;8.722;2022-10-13T10:26:59;14.20;99.90
4651;DHT22;2338;49.602;8.722;2022-10-13T10:29:48;14.20;99.90
4651;DHT22;2338;49.602;8.722;2022-10-13T10:32:42;14.20;99.90
4651;DHT22;2338;49.602;8.722;2022-10-13T10:35:40;14.10;99.90
4651;DHT22;2338;49.602;8.722;2022-10-13T10:38:34;14.10;99.90
4651;DHT22;2338;49.602;8.722;2022-10-13T10:41:43;14.10;99.90
4651;DHT22;2338;49.602;8.722;2022-10-13T10:44:32;14.20;99.90
4651;DHT22;2338;49.602;8.722;2022-10-13T10:47:22;14.20;99.90
4651;DHT22;2338;49.602;8.722;2022-10-13T10:50:14;14.20;99.90
4651;DHT22;2338;49.602;8.722;2022-10-13T10:53:03;14.10;99.90
4651;DHT22;2338;49.602;8.722;2022-10-13T10:55:53;14.10;99.90
4651;DHT22;2338;49.602;8.722;2022-10-13T10:58:46;14.10;99.90
4651;DHT22;2338;49.602;8.722;2022-10-13T11:01:36;14.10;99.90
4651;DHT22;2338;49.602;8.722;2022-10-13T11:04:38;14.20;99.90
4651;DHT22;2338;49.602;8.722;2022-10-13T11:07:53;14.20;99.90
4651;DHT22;2338;49.602;8.722;2022-10-13T11:10:39;14.30;99.90
4651;DHT22;2338;49.602;8.722;2022-10-13T11:13:25;14.30;99.90
4651;DHT22;2338;49.602;8.722;2022-10-13T11:16:26;14.30;99.90
4651;DHT22;2338;49.602;8.722;2022-10-13T11:19:29;14.30;99.90
4651;DHT22;2338;49.602;8.722;2022-10-13T11:22:18;14.30;99.90
4651;DHT22;2338;49.602;8.722;2022-10-13T11:25:33;14.30;99.90
4651;DHT22;2338;49.602;8.722;2022-10-13T11:28:44;14.30;99.90
4651;DHT22;2338;49.602;8.722;2022-10-13T11:31:47;14.40;99.90
4651;DHT22;2338;49.602;8.722;2022-10-13T11:34:33;14.50;99.90
4651;DHT22;2338;49.602;8.722;2022-10-13T11:37:33;14.60;99.90
4651;DHT22;2338;49.602;8.722;2022-10-13T11:40:31;14.70;99.90
4651;DHT22;2338;49.602;8.722;2022-10-13T11:43:28;14.80;99.90
4651;DHT22;2338;49.602;8.722;2022-10-13T11:46:26;15.00;99.90
4651;DHT22;2338;49.602;8.722;2022-10-13T11:53:00;15.20;99.90
4651;DHT22;2338;49.602;8.722;2022-10-13T11:55:52;15.30;99.90
4651;DHT22;2338;49.602;8.722;2022-10-13T11:58:41;15.20;99.90
4651;DHT22;2338;49.602;8.722;2022-10-13T12:01:29;15.30;99.90
4651;DHT22;2338;49.602;8.722;2022-10-13T12:04:20;15.30;99.90
4651;DHT22;2338;49.602;8.722;2022-10-13T12:07:09;15.30;99.90
4651;DHT22;2338;49.602;8.722;2022-10-13T12:09:57;15.40;99.90
4651;DHT22;2338;49.602;8.722;2022-10-13T12:12:45;15.50;99.90
4651;DHT22;2338;49.602;8.722;2022-10-13T12:15:34;15.70;99.90
4651;DHT22;2338;49.602;8.722;2022-10-13T12:18:23;16.00;99.90
4651;DHT22;2338;49.602;8.722;2022-10-13T12:21:12;16.30;99.90
4651;DHT22;2338;49.602;8.722;2022-10-13T12:24:08;16.40;99.90
4651;DHT22;2338;49.602;8.722;2022-10-13T12:26:57;16.40;99.90
4651;DHT22;2338;49.602;8.722;2022-10-13T12:29:43;16.40;99.90
4651;DHT22;2338;49.602;8.722;2022-10-13T12:32:31;16.40;99.90
4651;DHT22;2338;49.602;8.722;2022-10-13T12:35:21;16.30;99.90
4651;DHT22;2338;49.602;8.722;2022-10-13T12:38:16;16.30;99.90
4651;DHT22;2338;49.602;8.722;2022-10-13T12:41:04;16.20;99.90
4651;DHT22;2338;49.602;8.722;2022-10-13T12:43:51;16.20;99.90
4651;DHT22;2338;49.602;8.722;2022-10-13T12:46:39;16.20;99.90
4651;DHT22;2338;49.602;8.722;2022-10-13T12:49:26;16.20;99.90
4651;DHT22;2338;49.602;8.722;2022-10-13T12:52:14;16.10;99.90
4651;DHT22;2338;49.602;8.722;2022-10-13T12:55:00;16.20;99.90
4651;DHT22;2338;49.602;8.722;2022-10-13T12:57:49;16.00;99.90
4651;DHT22;2338;49.602;8.722;2022-10-13T13:00:36;15.80;99.90
4651;DHT22;2338;49.602;8.722;2022-10-13T13:03:26;15.70;99.90
4651;DHT22;2338;49.602;8.722;2022-10-13T13:06:32;15.60;99.90
4651;DHT22;2338;49.602;8.722;2022-10-13T13:09:24;15.60;99.90
4651;DHT22;2338;49.602;8.722;2022-10-13T13:12:26;15.60;99.90
4651;DHT22;2338;49.602;8.722;2022-10-13T13:15:30;15.50;99.90
4651;DHT22;2338;49.602;8.722;2022-10-13T13:18:30;15.50;99.90
4651;DHT22;2338;49.602;8.722;2022-10-13T13:21:19;15.50;99.90
4651;DHT22;2338;49.602;8.722;2022-10-13T13:24:05;15.60;99.90
4651;DHT22;2338;49.602;8.722;2022-10-13T13:26:51;15.70;99.90
4651;DHT22;2338;49.602;8.722;2022-10-13T13:29:36;15.70;99.90
4651;DHT22;2338;49.602;8.722;2022-10-13T13:32:26;15.60;99.90
4651;DHT22;2338;49.602;8.722;2022-10-13T13:35:11;15.70;99.90
4651;DHT22;2338;49.602;8.722;2022-10-13T13:37:57;15.60;99.90
4651;DHT22;2338;49.602;8.722;2022-10-13T13:40:43;15.60;99.90
4651;DHT22;2338;49.602;8.722;2022-10-13T13:43:29;15.70;99.90
4651;DHT22;2338;49.602;8.722;2022-10-13T13:46:17;15.80;99.90
4651;DHT22;2338;49.602;8.722;2022-10-13T13:49:05;15.80;99.90
4651;DHT22;2338;49.602;8.722;2022-10-13T13:51:50;15.80;99.90
4651;DHT22;2338;49.602;8.722;2022-10-13T13:54:36;15.90;99.90
4651;DHT22;2338;49.602;8.722;2022-10-13T13:57:22;15.90;99.90
4651;DHT22;2338;49.602;8.722;2022-10-13T14:00:10;15.90;99.90
4651;DHT22;2338;49.602;8.722;2022-10-13T14:02:56;16.00;99.90
4651;DHT22;2338;49.602;8.722;2022-10-13T14:05:43;16.10;99.90
4651;DHT22;2338;49.602;8.722;2022-10-13T14:08:29;16.20;99.90
4651;DHT22;2338;49.602;8.722;2022-10-13T14:11:16;16.10;99.90
4651;DHT22;2338;49.602;8.722;2022-10-13T14:14:02;16.20;99.90
4651;DHT22;2338;49.602;8.722;2022-10-13T14:16:47;16.20;99.90
4651;DHT22;2338;49.602;8.722;2022-10-13T14:19:33;16.20;99.90
4651;DHT22;2338;49.602;8.722;2022-10-13T14:22:20;16.30;99.90
4651;DHT22;2338;49.602;8.722;2022-10-13T14:25:07;16.20;99.90
4651;DHT22;2338;49.602;8.722;2022-10-13T14:27:52;16.10;99.90
4651;DHT22;2338;49.602;8.722;2022-10-13T14:30:38;16.10;99.90
4651;DHT22;2338;49.602;8.722;2022-10-13T14:33:27;16.10;99.90
4651;DHT22;2338;49.602;8.722;2022-10-13T14:36:14;16.10;99.90
4651;DHT22;2338;49.602;8.722;2022-10-13T14:39:04;16.00;99.90
4651;DHT22;2338;49.602;8.722;2022-10-13T14:41:50;16.00;99.90
4651;DHT22;2338;49.602;8.722;2022-10-13T14:44:35;16.00;99.90
4651;DHT22;2338;49.602;8.722;2022-10-13T14:47:21;16.00;99.90
4651;DHT22;2338;49.602;8.722;2022-10-13T14:50:08;16.00;99.90
4651;DHT22;2338;49.602;8.722;2022-10-13T14:52:53;16.00;99.90
4651;DHT22;2338;49.602;8.722;2022-10-13T14:55:41;15.90;99.90
4651;DHT22;2338;49.602;8.722;2022-10-13T14:58:26;15.80;99.90
4651;DHT22;2338;49.602;8.722;2022-10-13T15:01:12;15.80;99.90
4651;DHT22;2338;49.602;8.722;2022-10-13T15:03:58;15.80;99.90
4651;DHT22;2338;49.602;8.722;2022-10-13T15:06:44;15.80;99.90
4651;DHT22;2338;49.602;8.722;2022-10-13T15:09:30;15.80;99.90
4651;DHT22;2338;49.602;8.722;2022-10-13T15:12:17;15.80;99.90
4651;DHT22;2338;49.602;8.722;2022-10-13T15:15:03;15.80;99.90
4651;DHT22;2338;49.602;8.722;2022-10-13T15:17:49;15.80;99.90
4651;DHT22;2338;49.602;8.722;2022-10-13T15:20:35;15.70;99.90
4651;DHT22;2338;49.602;8.722;2022-10-13T15:23:21;15.80;99.90
4651;DHT22;2338;49.602;8.722;2022-10-13T15:26:08;15.80;99.90
4651;DHT22;2338;49.602;8.722;2022-10-13T15:28:56;15.80;99.90
4651;DHT22;2338;49.602;8.722;2022-10-13T15:31:42;15.80;99.90
4651;DHT22;2338;49.602;8.722;2022-10-13T15:34:27;15.80;99.90
4651;DHT22;2338;49.602;8.722;2022-10-13T15:37:13;15.80;99.90
4651;DHT22;2338;49.602;8.722;2022-10-13T15:39:59;15.80;99.90
4651;DHT22;2338;49.602;8.722;2022-10-13T15:42:45;15.80;99.90
4651;DHT22;2338;49.602;8.722;2022-10-13T15:45:32;15.80;99.90
4651;DHT22;2338;49.602;8.722;2022-10-13T15:48:18;15.80;99.90
4651;DHT22;2338;49.602;8.722;2022-10-13T15:51:08;15.80;99.90
4651;DHT22;2338;49.602;8.722;2022-10-13T15:53:58;15.80;99.90
4651;DHT22;2338;49.602;8.722;2022-10-13T15:56:44;15.80;99.90
4651;DHT22;2338;49.602;8.722;2022-10-13T15:59:29;15.70;99.90
4651;DHT22;2338;49.602;8.722;2022-10-13T16:02:16;15.60;99.90
4651;DHT22;2338;49.602;8.722;2022-10-13T16:05:02;15.60;99.90
4651;DHT22;2338;49.602;8.722;2022-10-13T16:07:49;15.60;99.90
4651;DHT22;2338;49.602;8.722;2022-10-13T16:10:36;15.60;99.90
4651;DHT22;2338;49.602;8.722;2022-10-13T16:13:22;15.50;99.90
4651;DHT22;2338;49.602;8.722;2022-10-13T16:16:08;15.40;99.90
4651;DHT22;2338;49.602;8.722;2022-10-13T16:18:55;15.30;99.90
4651;DHT22;2338;49.602;8.722;2022-10-13T16:21:40;15.30;99.90
4651;DHT22;2338;49.602;8.722;2022-10-13T16:24:27;15.20;99.90
4651;DHT22;2338;49.602;8.722;2022-10-13T16:27:12;15.10;99.90
4651;DHT22;2338;49.602;8.722;2022-10-13T16:29:58;15.10;99.90
4651;DHT22;2338;49.602;8.722;2022-10-13T16:32:43;15.10;99.90
4651;DHT22;2338;49.602;8.722;2022-10-13T16:35:31;15.10;99.90
4651;DHT22;2338;49.602;8.722;2022-10-13T16:38:17;15.00;99.90
4651;DHT22;2338;49.602;8.722;2022-10-13T16:41:03;15.10;99.90
4651;DHT22;2338;49.602;8.722;2022-10-13T16:43:49;15.10;99.90
4651;DHT22;2338;49.602;8.722;2022-10-13T16:46:35;15.10;99.90
4651;DHT22;2338;49.602;8.722;2022-10-13T16:49:21;15.10;99.90
4651;DHT22;2338;49.602;8.722;2022-10-13T16:52:08;15.20;99.90
4651;DHT22;2338;49.602;8.722;2022-10-13T16:54:54;15.20;99.90
4651;DHT22;2338;49.602;8.722;2022-10-13T16:57:40;15.00;99.90
4651;DHT22;2338;49.602;8.722;2022-10-13T17:00:27;14.90;99.90
4651;DHT22;2338;49.602;8.722;2022-10-13T17:03:13;14.90;99.90
4651;DHT22;2338;49.602;8.722;2022-10-13T17:05:59;14.90;99.90
4651;DHT22;2338;49.602;8.722;2022-10-13T17:08:46;15.00;99.90
4651;DHT22;2338;49.602;8.722;2022-10-13T17:11:33;14.90;99.90
4651;DHT22;2338;49.602;8.722;2022-10-13T17:14:20;14.90;99.90
4651;DHT22;2338;49.602;8.722;2022-10-13T17:17:06;14.90;99.90
4651;DHT22;2338;49.602;8.722;2022-10-13T17:19:52;14.90;99.90
4651;DHT22;2338;49.602;8.722;2022-10-13T17:22:37;14.90;99.90
4651;DHT22;2338;49.602;8.722;2022-10-13T17:25:25;14.90;99.90
4651;DHT22;2338;49.602;8.722;2022-10-13T17:28:10;14.90;99.90
4651;DHT22;2338;49.602;8.722;2022-10-13T17:30:57;14.90;99.90
4651;DHT22;2338;49.602;8.722;2022-10-13T17:33:43;15.00;99.90
4651;DHT22;2338;49.602;8.722;2022-10-13T17:36:29;14.90;99.90
4651;DHT22;2338;49.602;8.722;2022-10-13T17:39:17;14.90;99.90
4651;DHT22;2338;49.602;8.722;2022-10-13T17:42:04;14.90;99.90
4651;DHT22;2338;49.602;8.722;2022-10-13T17:44:50;14.90;99.90
4651;DHT22;2338;49.602;8.722;2022-10-13T17:47:35;14.90;99.90
4651;DHT22;2338;49.602;8.722;2022-10-13T17:50:21;14.80;99.90
4651;DHT22;2338;49.602;8.722;2022-10-13T17:53:08;14.80;99.90
4651;DHT22;2338;49.602;8.722;2022-10-13T17:55:58;14.80;99.90
4651;DHT22;2338;49.602;8.722;2022-10-13T17:58:45;14.80;99.90
4651;DHT22;2338;49.602;8.722;2022-10-13T18:01:33;14.80;99.90
4651;DHT22;2338;49.602;8.722;2022-10-13T18:04:19;14.70;99.90
4651;DHT22;2338;49.602;8.722;2022-10-13T18:07:05;14.60;99.90
4651;DHT22;2338;49.602;8.722;2022-10-13T18:09:51;14.60;99.90
4651;DHT22;2338;49.602;8.722;2022-10-13T18:12:37;14.60;99.90
4651;DHT22;2338;49.602;8.722;2022-10-13T18:15:24;14.60;99.90
4651;DHT22;2338;49.602;8.722;2022-10-13T18:18:10;14.70;99.90
4651;DHT22;2338;49.602;8.722;2022-10-13T18:20:56;14.70;99.90
4651;DHT22;2338;49.602;8.722;2022-10-13T18:23:41;14.60;99.90